Davenport, IA (52808)

3:54 PM CDT on April 18, 2015 (GMT -0500)
West Central Davenport | | Change Station
CLOSE
Current Station
Personal Weather Station
Location: Davenport, IA
Elevation: 704 ft
Nearby Weather Stations

Elev 704 ft 41.53 °N, 90.61 °W | Updated 3 seconds ago

Mostly Cloudy
Mostly Cloudy
71.7 °F
Feels Like 77 °F
N
6.2
Wind Variable Wind from East
Gusts 6.2 mph

Today
High -- | Low -- °F
--% Chance of Precip.
Yesterday
High -- | Low -- °F
Precip. -- in
6:18 AM 7:46 PM
New Moon, 0% visible
Pressure 29.91 in
Visibility 10.0 miles
Clouds Scattered Clouds 6500 ft
Mostly Cloudy 7500 ft
Mostly Cloudy 10000 ft
Heat Index 77 °F
Dew Point 47 °F
Humidity 42%
Rainfall 0.00 in
Snow Depth Not available.
UV 4 out of 12
Pollen 9.60 out of 12
Air Quality Not available.
Flu Activity Local Activity
SPECI KMLI 182013Z 06020G24KT 10SM SCT065 BKN075 BKN100 24/12 A2991 RMK AO2 WSHFT 1953 LTG DSNT E T02390117 $

More Conditions Fewer Conditions

Pressure 29.91 in
Visibility 10.0 miles
Clouds Scattered Clouds 6500 ft
Mostly Cloudy 7500 ft
Mostly Cloudy 10000 ft
Heat Index 77 °F
Dew Point 47 °F
Humidity 42%
Rainfall 0.00 in
Snow Depth Not available.
UV 4 out of 12
Pollen 9.60 out of 12
Air Quality Not available.
Flu Activity Local Activity
SPECI KMLI 182013Z 06020G24KT 10SM SCT065 BKN075 BKN100 24/12 A2991 RMK AO2 WSHFT 1953 LTG DSNT E T02390117 $

More Conditions Fewer Conditions

10-Day Weather Forecast

Almanac

Astronomy

Apr. 18, 2015 Rise Set
Actual Time
Civil Twilight
Nautical Twilight
Astronomical Twilight
Moon
Length of Visible Light
Length of Day
Tomorrow will be .
, % of the Moon is Illuminated

Today's Extremes

State Highs State Lows

Community

WunderPhotos

Upload Photos

1,814,525 photos uploaded!

WunderBlogs® & News

Nearby

Air Quality

  Air Quality AQ Index Pollutant
Not available.

Snow Depth

Station Depth Elevation

Earthquake Activity

City Distance Mag. Time & Date
Minimum magnitude displayed is 2.5.

Coastal Water Temperatures

Place Temperature

Stations

Nearby Weather Stations

Station Location Temp. Windchill Dew Point Humidity Wind Precip. Elev Updated Type